Weather History for KDTL - October, 2013

Change the Weather History Date:

Tuesday, October 1, 2013

  Actual Average Record
Temperature  
Mean Temperature 60 °F -  
Max Temperature 68 °F 64 °F 84 °F (1976)
Min Temperature 53 °F 38 °F 21 °F (1984)
Degree Days  
Heating Degree Days 4    
Growing Degree Days 10 (Base 50)    
Moisture  
Dew Point 40 °F    
Average Humidity 50    
Maximum Humidity 77    
Minimum Humidity 26    
Precipitation  
Precipitation 0.00 in - - ()
Sea Level Pressure  
Sea Level Pressure 29.79 in    
Wind  
Wind Speed 12 mph (West)    
Max Wind Speed 24 mph    
Max Gust Speed 34 mph    
Visibility 10 miles    
Events Rain    
Averages and records for this station are not official NWS values.
T = Trace of Precipitation, MM = Missing Value Source: NWS Daily Summary

Daily Weather History Graph

Daily Weather History Graph

Search for Another Location

Airport or City:

Trip Planner

Search our weather history database for the weather conditions in past years. The results will help you decide how hot, cold, wet, or windy it might be!

Date:

Astronomy

Oct. 01, 2013 Rise Set
Actual Time 7:22 AM CDT 7:02 PM CDT
Civil Twilight 6:52 AM CDT 7:32 PM CDT
Nautical Twilight 6:17 AM CDT 8:08 PM CDT
Astronomical Twilight 5:41 AM CDT 8:43 PM CDT
Moon 3:47 AM CDT (10/1) 5:15 PM CDT (10/1)
Length of Visible Light 12h 40m
Length of Day
11h 40m
Waning Crescent, 12% of the Moon is Illuminated
Oct 1
Waning Crescent
Oct 4
New
Oct 11
First Quarter
Oct 18
Full
Oct 26
Last Quarter

Hourly Weather History & Observations

Time (CDT) Temp. Dew Point Humidity Pressure Visibility Wind Dir Wind Speed Gust Speed Precip Events Conditions
12:15 AM 64.4 °F 53.6 °F 68% 29.53 in 10.0 mi South 5.8 mph - N/A   Clear
12:35 AM 64.4 °F 53.6 °F 68% 29.53 in 10.0 mi South 10.4 mph - N/A Rain Light Rain
12:55 AM 62.6 °F 53.6 °F 72% 29.53 in 10.0 mi SSW 6.9 mph - N/A   Clear
1:15 AM 64.4 °F 53.6 °F 68% 29.52 in 10.0 mi SSW 5.8 mph - N/A   Clear
1:35 AM 68.0 °F 50.0 °F 52% 29.56 in 10.0 mi WNW 24.2 mph 34.5 mph N/A   Clear
1:55 AM 64.4 °F 51.8 °F 64% 29.59 in 10.0 mi NW 16.1 mph 23.0 mph N/A   Clear
2:15 AM 62.6 °F 51.8 °F 68% 29.60 in 10.0 mi NW 19.6 mph 25.3 mph N/A Rain Light Rain
2:35 AM 60.8 °F 50.0 °F 68% 29.60 in 10.0 mi NW 9.2 mph - N/A   Clear
2:55 AM 60.8 °F 51.8 °F 72% 29.61 in 10.0 mi NW 8.1 mph - N/A   Clear
3:15 AM 59.0 °F 51.8 °F 77% 29.61 in 10.0 mi NW 6.9 mph - N/A   Clear
3:35 AM 59.0 °F 50.0 °F 72% 29.62 in 10.0 mi NW 11.5 mph 17.3 mph N/A   Clear
3:55 AM 59.0 °F 50.0 °F 72% 29.63 in 10.0 mi NW 18.4 mph 23.0 mph N/A Rain Light Rain
4:15 AM 59.0 °F 50.0 °F 72% 29.64 in 10.0 mi NW 16.1 mph 20.7 mph N/A   Clear
4:35 AM 57.2 °F 48.2 °F 72% 29.63 in 10.0 mi NW 11.5 mph 20.7 mph N/A   Clear
4:55 AM 57.2 °F 48.2 °F 72% 29.65 in 10.0 mi NW 13.8 mph 19.6 mph N/A   Clear
5:15 AM 55.4 °F 48.2 °F 77% 29.67 in 10.0 mi WNW 11.5 mph - N/A   Clear
5:35 AM 55.4 °F 46.4 °F 72% 29.68 in 10.0 mi WNW 13.8 mph 18.4 mph N/A   Clear
5:54 AM 55.4 °F 46.4 °F 72% 29.69 in 10.0 mi WNW 12.7 mph 18.4 mph N/A   Clear
6:15 AM 55.4 °F 44.6 °F 67% 29.69 in 10.0 mi WNW 13.8 mph 17.3 mph N/A   Clear
6:35 AM 55.4 °F 42.8 °F 63% 29.70 in 10.0 mi WNW 16.1 mph 19.6 mph N/A   Clear
6:55 AM 53.6 °F 42.8 °F 67% 29.72 in 10.0 mi West 15.0 mph 19.6 mph N/A   Clear
7:15 AM 53.6 °F 42.8 °F 67% 29.73 in 10.0 mi West 11.5 mph - N/A   Clear
7:35 AM 53.6 °F 41.0 °F 62% 29.74 in 10.0 mi West 12.7 mph 17.3 mph N/A   Clear
7:55 AM 53.6 °F 41.0 °F 62% 29.75 in 10.0 mi West 9.2 mph 16.1 mph N/A   Clear
8:15 AM 53.6 °F 41.0 °F 62% 29.75 in 10.0 mi West 13.8 mph 18.4 mph N/A   Clear
8:35 AM 53.6 °F 41.0 °F 62% 29.76 in 10.0 mi West 15.0 mph 20.7 mph N/A   Clear
8:55 AM 55.4 °F 41.0 °F 58% 29.77 in 10.0 mi West 11.5 mph 19.6 mph N/A   Clear
9:15 AM 55.4 °F 41.0 °F 58% 29.78 in 10.0 mi West 15.0 mph 20.7 mph N/A   Clear
9:35 AM 55.4 °F 41.0 °F 58% 29.79 in 10.0 mi West 15.0 mph 23.0 mph N/A   Clear
9:55 AM 55.4 °F 41.0 °F 58% 29.81 in 10.0 mi West 15.0 mph 24.2 mph N/A   Clear
10:15 AM 57.2 °F 41.0 °F 55% 29.81 in 10.0 mi West 13.8 mph 20.7 mph N/A   Clear
10:35 AM 59.0 °F 39.2 °F 48% 29.81 in 10.0 mi West 17.3 mph 21.9 mph N/A   Clear
10:55 AM 59.0 °F 37.4 °F 45% 29.81 in 10.0 mi West 16.1 mph 26.5 mph N/A   Clear
11:15 AM 60.8 °F 37.4 °F 42% 29.82 in 10.0 mi West 16.1 mph 21.9 mph N/A   Clear
11:35 AM 60.8 °F 37.4 °F 42% 29.83 in 10.0 mi West 17.3 mph - N/A   Clear
11:55 AM 60.8 °F 37.4 °F 42% 29.83 in 10.0 mi West 12.7 mph 19.6 mph N/A   Clear
12:15 PM 60.8 °F 37.4 °F 42% 29.83 in 10.0 mi West 11.5 mph - N/A   Clear
12:35 PM 62.6 °F 37.4 °F 39% 29.83 in 10.0 mi West 18.4 mph 24.2 mph N/A   Clear
12:55 PM 62.6 °F 37.4 °F 39% 29.84 in 10.0 mi West 19.6 mph 24.2 mph N/A   Clear
1:15 PM 62.6 °F 35.6 °F 37% 29.84 in 10.0 mi West 16.1 mph 23.0 mph N/A   Clear
1:35 PM 62.6 °F 35.6 °F 37% 29.84 in 10.0 mi West 16.1 mph 23.0 mph N/A   Clear
1:55 PM 64.4 °F 35.6 °F 34% 29.84 in 10.0 mi West 16.1 mph 23.0 mph N/A   Clear
2:15 PM 64.4 °F 37.4 °F 37% 29.84 in 10.0 mi West 15.0 mph 20.7 mph N/A   Clear
2:35 PM 64.4 °F 35.6 °F 34% 29.84 in 10.0 mi West 17.3 mph 23.0 mph N/A   Clear
2:55 PM 66.2 °F 33.8 °F 30% 29.84 in 10.0 mi West 16.1 mph 27.6 mph N/A   Clear
3:14 PM 66.2 °F 32.0 °F 28% 29.85 in 10.0 mi West 18.4 mph 25.3 mph N/A   Clear
3:35 PM 68.0 °F 33.8 °F 28% 29.85 in 10.0 mi West 20.7 mph 27.6 mph N/A   Clear
3:55 PM 68.0 °F 32.0 °F 26% 29.85 in 10.0 mi West 17.3 mph 26.5 mph N/A   Clear
4:15 PM 68.0 °F 32.0 °F 26% 29.85 in 10.0 mi West 18.4 mph 25.3 mph N/A   Clear
4:35 PM 68.0 °F 32.0 °F 26% 29.85 in 10.0 mi West 18.4 mph 26.5 mph N/A   Clear
4:55 PM 66.2 °F 32.0 °F 28% 29.86 in 10.0 mi West 15.0 mph 23.0 mph N/A   Clear
5:15 PM 66.2 °F 32.0 °F 28% 29.86 in 10.0 mi West 17.3 mph 25.3 mph N/A   Clear
5:35 PM 66.2 °F 32.0 °F 28% 29.87 in 10.0 mi West 15.0 mph 21.9 mph N/A   Clear
5:54 PM 64.4 °F 33.8 °F 32% 29.87 in 10.0 mi West 11.5 mph - N/A   Clear
6:15 PM 64.4 °F 32.0 °F 30% 29.87 in 10.0 mi West 13.8 mph 23.0 mph N/A   Clear
6:35 PM 64.4 °F 32.0 °F 30% 29.88 in 10.0 mi West 12.7 mph 18.4 mph N/A   Clear
6:54 PM 62.6 °F 32.0 °F 32% 29.88 in 10.0 mi West 6.9 mph - N/A   Clear
7:15 PM 60.8 °F 33.8 °F 36% 29.89 in 10.0 mi West 6.9 mph - N/A   Clear
7:35 PM 60.8 °F 33.8 °F 36% 29.89 in 10.0 mi West 5.8 mph - N/A   Clear
7:54 PM 59.0 °F 35.6 °F 42% 29.90 in 10.0 mi West 5.8 mph - N/A   Clear
8:15 PM 59.0 °F 35.6 °F 42% 29.90 in 10.0 mi West 6.9 mph - N/A   Clear
8:35 PM 59.0 °F 35.6 °F 42% 29.91 in 10.0 mi West 6.9 mph - N/A   Clear
8:55 PM 57.2 °F 35.6 °F 44% 29.91 in 10.0 mi West 6.9 mph - N/A   Clear
9:15 PM 57.2 °F 35.6 °F 44% 29.92 in 10.0 mi WSW 5.8 mph - N/A   Clear
9:34 PM 55.4 °F 35.6 °F 47% 29.92 in 10.0 mi West 5.8 mph - N/A   Clear
9:55 PM 57.2 °F 35.6 °F 44% 29.93 in 10.0 mi West 6.9 mph - N/A   Clear
10:15 PM 55.4 °F 35.6 °F 47% 29.94 in 10.0 mi WSW 3.5 mph - N/A   Clear
10:34 PM 55.4 °F 35.6 °F 47% 29.94 in 10.0 mi WSW 3.5 mph - N/A   Clear
10:55 PM 55.4 °F 35.6 °F 47% 29.94 in 10.0 mi WSW 4.6 mph - N/A   Clear
11:15 PM 55.4 °F 37.4 °F 51% 29.96 in 10.0 mi SW 3.5 mph - N/A   Clear
11:34 PM 55.4 °F 37.4 °F 51% 29.96 in 10.0 mi SW 3.5 mph - N/A   Clear
11:55 PM 53.6 °F 37.4 °F 54% 29.96 in 10.0 mi WSW 3.5 mph - N/A   Clear